sensor_id;sensor_type;location;lat;lon;timestamp;pressure;altitude;pressure_sealevel;temperature;humidity
50672;BME280;46021;55.882;37.654;2022-10-26T00:01:06;100044.09;;;-2.11;76.72
50672;BME280;46021;55.882;37.654;2022-10-26T00:03:34;100043.44;;;-2.04;76.66
50672;BME280;46021;55.882;37.654;2022-10-26T00:06:02;100038.56;;;-1.94;76.36
50672;BME280;46021;55.882;37.654;2022-10-26T00:08:31;100035.25;;;-1.90;76.01
50672;BME280;46021;55.882;37.654;2022-10-26T00:10:58;100030.19;;;-1.87;75.87
50672;BME280;46021;55.882;37.654;2022-10-26T00:13:27;100027.56;;;-1.90;75.63
50672;BME280;46021;55.882;37.654;2022-10-26T00:15:54;100026.41;;;-2.03;76.85
50672;BME280;46021;55.882;37.654;2022-10-26T00:18:21;100026.69;;;-1.92;75.94
50672;BME280;46021;55.882;37.654;2022-10-26T00:20:49;100019.88;;;-1.92;76.07
50672;BME280;46021;55.882;37.654;2022-10-26T00:23:17;100018.97;;;-1.94;76.31
50672;BME280;46021;55.882;37.654;2022-10-26T00:25:53;100028.25;;;-1.98;75.65
50672;BME280;46021;55.882;37.654;2022-10-26T00:28:21;100017.94;;;-2.01;75.21
50672;BME280;46021;55.882;37.654;2022-10-26T00:30:50;100017.72;;;-2.10;75.36
50672;BME280;46021;55.882;37.654;2022-10-26T00:33:17;100005.72;;;-2.14;74.85
50672;BME280;46021;55.882;37.654;2022-10-26T00:35:46;100003.53;;;-2.33;75.66
50672;BME280;46021;55.882;37.654;2022-10-26T00:38:14;100009.53;;;-2.31;76.29
50672;BME280;46021;55.882;37.654;2022-10-26T00:40:41;100006.75;;;-2.41;77.03
50672;BME280;46021;55.882;37.654;2022-10-26T00:43:14;100004.94;;;-2.45;76.72
50672;BME280;46021;55.882;37.654;2022-10-26T00:45:43;100009.09;;;-2.48;76.53
50672;BME280;46021;55.882;37.654;2022-10-26T00:48:19;100012.50;;;-2.48;76.37
50672;BME280;46021;55.882;37.654;2022-10-26T00:50:50;100016.72;;;-2.50;77.04
50672;BME280;46021;55.882;37.654;2022-10-26T00:53:19;100008.94;;;-2.55;77.54
50672;BME280;46021;55.882;37.654;2022-10-26T00:55:49;100016.66;;;-2.53;77.02
50672;BME280;46021;55.882;37.654;2022-10-26T00:58:17;100011.59;;;-2.50;76.33
50672;BME280;46021;55.882;37.654;2022-10-26T01:00:46;100007.41;;;-2.49;78.42
50672;BME280;46021;55.882;37.654;2022-10-26T01:03:16;100008.19;;;-2.50;78.37
50672;BME280;46021;55.882;37.654;2022-10-26T01:05:45;100001.41;;;-2.50;77.22
50672;BME280;46021;55.882;37.654;2022-10-26T01:08:14;100004.13;;;-2.44;77.12
50672;BME280;46021;55.882;37.654;2022-10-26T01:10:44;100003.53;;;-2.33;76.82
50672;BME280;46021;55.882;37.654;2022-10-26T01:13:12;99999.38;;;-2.30;76.75
50672;BME280;46021;55.882;37.654;2022-10-26T01:15:47;100008.94;;;-2.21;76.91
50672;BME280;46021;55.882;37.654;2022-10-26T01:18:24;100010.78;;;-2.16;76.79
50672;BME280;46021;55.882;37.654;2022-10-26T01:21:32;100018.72;;;-2.05;76.99
50672;BME280;46021;55.882;37.654;2022-10-26T01:27:19;100008.81;;;-1.92;77.75
50672;BME280;46021;55.882;37.654;2022-10-26T01:30:14;100014.66;;;-1.97;77.35
50672;BME280;46021;55.882;37.654;2022-10-26T01:32:45;100012.22;;;-1.92;76.90
50672;BME280;46021;55.882;37.654;2022-10-26T01:35:17;100011.59;;;-1.82;76.16
50672;BME280;46021;55.882;37.654;2022-10-26T01:37:49;100010.09;;;-1.73;76.72
50672;BME280;46021;55.882;37.654;2022-10-26T01:40:22;100005.97;;;-1.67;76.13
50672;BME280;46021;55.882;37.654;2022-10-26T01:42:53;100007.03;;;-1.59;76.54
50672;BME280;46021;55.882;37.654;2022-10-26T01:45:25;100005.38;;;-1.57;76.34
50672;BME280;46021;55.882;37.654;2022-10-26T01:47:55;99999.44;;;-1.54;75.64
50672;BME280;46021;55.882;37.654;2022-10-26T01:50:23;100004.69;;;-1.48;76.17
50672;BME280;46021;55.882;37.654;2022-10-26T01:52:53;99996.25;;;-1.44;75.79
50672;BME280;46021;55.882;37.654;2022-10-26T01:55:48;99993.81;;;-1.39;75.55
50672;BME280;46021;55.882;37.654;2022-10-26T01:58:42;99995.34;;;-1.47;75.85
50672;BME280;46021;55.882;37.654;2022-10-26T02:04:23;99999.66;;;-1.45;75.62
50672;BME280;46021;55.882;37.654;2022-10-26T02:07:01;99997.06;;;-1.46;75.43
50672;BME280;46021;55.882;37.654;2022-10-26T02:09:39;99997.81;;;-1.50;75.51
50672;BME280;46021;55.882;37.654;2022-10-26T02:12:16;99996.78;;;-1.59;75.23
50672;BME280;46021;55.882;37.654;2022-10-26T02:14:49;100001.03;;;-1.59;75.31
50672;BME280;46021;55.882;37.654;2022-10-26T02:17:24;99994.16;;;-1.62;75.34
50672;BME280;46021;55.882;37.654;2022-10-26T02:19:57;99999.31;;;-1.60;75.11
50672;BME280;46021;55.882;37.654;2022-10-26T02:22:29;100000.94;;;-1.64;75.62
50672;BME280;46021;55.882;37.654;2022-10-26T02:25:00;99991.53;;;-1.65;75.34
50672;BME280;46021;55.882;37.654;2022-10-26T02:27:33;99989.81;;;-1.66;75.34
50672;BME280;46021;55.882;37.654;2022-10-26T02:30:02;99993.19;;;-1.67;75.51
50672;BME280;46021;55.882;37.654;2022-10-26T02:32:33;99999.16;;;-1.68;75.66
50672;BME280;46021;55.882;37.654;2022-10-26T02:35:02;100001.53;;;-1.74;76.04
50672;BME280;46021;55.882;37.654;2022-10-26T02:37:32;99999.81;;;-1.75;76.03
50672;BME280;46021;55.882;37.654;2022-10-26T02:40:02;99994.72;;;-1.75;76.53
50672;BME280;46021;55.882;37.654;2022-10-26T02:42:32;99998.09;;;-1.76;76.27
50672;BME280;46021;55.882;37.654;2022-10-26T02:45:03;100001.66;;;-1.69;75.86
50672;BME280;46021;55.882;37.654;2022-10-26T02:47:33;100000.00;;;-1.67;75.86
50672;BME280;46021;55.882;37.654;2022-10-26T02:50:01;100005.13;;;-1.67;75.59
50672;BME280;46021;55.882;37.654;2022-10-26T02:52:34;99996.59;;;-1.68;75.39
50672;BME280;46021;55.882;37.654;2022-10-26T02:55:10;100002.44;;;-1.73;76.18
50672;BME280;46021;55.882;37.654;2022-10-26T02:57:40;100005.19;;;-1.63;75.35
50672;BME280;46021;55.882;37.654;2022-10-26T03:00:11;100007.88;;;-1.58;75.41
50672;BME280;46021;55.882;37.654;2022-10-26T03:02:42;100002.03;;;-1.52;75.40
50672;BME280;46021;55.882;37.654;2022-10-26T03:05:13;100006.38;;;-1.48;75.43
50672;BME280;46021;55.882;37.654;2022-10-26T03:07:41;100003.19;;;-1.40;75.69
50672;BME280;46021;55.882;37.654;2022-10-26T03:10:09;99993.81;;;-1.39;75.31
50672;BME280;46021;55.882;37.654;2022-10-26T03:12:37;100001.56;;;-1.36;75.11
50672;BME280;46021;55.882;37.654;2022-10-26T03:15:05;99993.94;;;-1.33;75.63
50672;BME280;46021;55.882;37.654;2022-10-26T03:17:32;100003.50;;;-1.24;75.75
50672;BME280;46021;55.882;37.654;2022-10-26T03:20:01;100000.13;;;-1.22;75.23
50672;BME280;46021;55.882;37.654;2022-10-26T03:22:29;99992.53;;;-1.19;75.27
50672;BME280;46021;55.882;37.654;2022-10-26T03:24:56;99988.38;;;-1.13;74.90
50672;BME280;46021;55.882;37.654;2022-10-26T03:27:23;99987.19;;;-1.29;74.89
50672;BME280;46021;55.882;37.654;2022-10-26T03:29:51;99991.59;;;-1.22;74.83
50672;BME280;46021;55.882;37.654;2022-10-26T03:32:19;99989.94;;;-1.20;75.03
50672;BME280;46021;55.882;37.654;2022-10-26T03:34:46;100001.84;;;-1.22;74.91
50672;BME280;46021;55.882;37.654;2022-10-26T03:37:14;99992.53;;;-1.19;74.94
50672;BME280;46021;55.882;37.654;2022-10-26T03:39:42;99990.91;;;-1.15;74.80
50672;BME280;46021;55.882;37.654;2022-10-26T03:42:09;99989.13;;;-1.18;74.64
50672;BME280;46021;55.882;37.654;2022-10-26T03:44:36;99994.19;;;-1.21;75.13
50672;BME280;46021;55.882;37.654;2022-10-26T03:47:03;99989.28;;;-1.11;74.47
50672;BME280;46021;55.882;37.654;2022-10-26T03:49:30;99990.97;;;-1.10;75.01
50672;BME280;46021;55.882;37.654;2022-10-26T03:51:59;99993.56;;;-1.09;74.37
50672;BME280;46021;55.882;37.654;2022-10-26T03:54:27;99986.34;;;-1.30;74.74
50672;BME280;46021;55.882;37.654;2022-10-26T03:56:55;99988.22;;;-1.20;74.65
50672;BME280;46021;55.882;37.654;2022-10-26T03:59:22;99989.19;;;-1.14;74.61
50672;BME280;46021;55.882;37.654;2022-10-26T04:01:49;99982.16;;;-1.26;74.91
50672;BME280;46021;55.882;37.654;2022-10-26T04:04:17;99994.13;;;-1.24;74.20
50672;BME280;46021;55.882;37.654;2022-10-26T04:06:47;99990.88;;;-1.16;74.67
50672;BME280;46021;55.882;37.654;2022-10-26T04:09:15;99984.97;;;-1.12;74.62
50672;BME280;46021;55.882;37.654;2022-10-26T04:11:43;99991.84;;;-1.11;74.87
50672;BME280;46021;55.882;37.654;2022-10-26T04:14:10;99987.59;;;-1.09;74.72
50672;BME280;46021;55.882;37.654;2022-10-26T04:16:37;99986.84;;;-1.05;74.73
50672;BME280;46021;55.882;37.654;2022-10-26T04:19:05;99991.16;;;-1.01;74.85
50672;BME280;46021;55.882;37.654;2022-10-26T04:21:32;99990.34;;;-1.00;74.44
50672;BME280;46021;55.882;37.654;2022-10-26T04:24:00;99997.03;;;-1.07;74.81
50672;BME280;46021;55.882;37.654;2022-10-26T04:26:27;100004.78;;;-1.02;74.14
50672;BME280;46021;55.882;37.654;2022-10-26T04:28:56;99996.28;;;-1.01;74.32
50672;BME280;46021;55.882;37.654;2022-10-26T04:31:23;100002.41;;;-0.93;74.47
50672;BME280;46021;55.882;37.654;2022-10-26T04:33:50;100008.50;;;-0.88;74.05
50672;BME280;46021;55.882;37.654;2022-10-26T04:36:17;100013.50;;;-0.94;74.01
50672;BME280;46021;55.882;37.654;2022-10-26T04:38:47;100017.00;;;-0.89;74.22
50672;BME280;46021;55.882;37.654;2022-10-26T04:41:14;100007.78;;;-0.81;73.92
50672;BME280;46021;55.882;37.654;2022-10-26T04:43:41;100015.72;;;-0.67;73.70
50672;BME280;46021;55.882;37.654;2022-10-26T04:46:10;100020.94;;;-0.62;73.38
50672;BME280;46021;55.882;37.654;2022-10-26T04:48:38;100022.66;;;-0.61;74.22
50672;BME280;46021;55.882;37.654;2022-10-26T04:51:06;100009.06;;;-0.57;73.06
50672;BME280;46021;55.882;37.654;2022-10-26T04:53:33;100009.22;;;-0.48;73.22
50672;BME280;46021;55.882;37.654;2022-10-26T04:56:00;100008.28;;;-0.54;73.66
50672;BME280;46021;55.882;37.654;2022-10-26T04:58:28;100005.75;;;-0.53;73.23
50672;BME280;46021;55.882;37.654;2022-10-26T05:00:55;99998.13;;;-0.48;73.46
50672;BME280;46021;55.882;37.654;2022-10-26T05:03:23;99999.06;;;-0.45;73.00
50672;BME280;46021;55.882;37.654;2022-10-26T05:05:51;99997.44;;;-0.40;72.78
50672;BME280;46021;55.882;37.654;2022-10-26T05:08:18;100000.13;;;-0.32;73.80
50672;BME280;46021;55.882;37.654;2022-10-26T05:10:47;100001.69;;;-0.40;73.80
50672;BME280;46021;55.882;37.654;2022-10-26T05:13:15;100007.81;;;-0.30;72.53
50672;BME280;46021;55.882;37.654;2022-10-26T05:15:42;100001.09;;;-0.25;72.45
50672;BME280;46021;55.882;37.654;2022-10-26T05:18:09;100011.28;;;-0.30;72.63
50672;BME280;46021;55.882;37.654;2022-10-26T05:20:39;100007.97;;;-0.24;73.61
50672;BME280;46021;55.882;37.654;2022-10-26T05:23:10;100007.19;;;-0.18;73.12
50672;BME280;46021;55.882;37.654;2022-10-26T05:25:38;100003.88;;;-0.13;72.42
50672;BME280;46021;55.882;37.654;2022-10-26T05:28:07;100012.53;;;-0.05;72.88
50672;BME280;46021;55.882;37.654;2022-10-26T05:30:36;100007.19;;;-0.18;72.57
50672;BME280;46021;55.882;37.654;2022-10-26T05:33:04;100010.84;;;-0.04;72.29
50672;BME280;46021;55.882;37.654;2022-10-26T05:35:32;100014.34;;;0.01;72.70
50672;BME280;46021;55.882;37.654;2022-10-26T05:38:06;100016.09;;;0.04;71.60
50672;BME280;46021;55.882;37.654;2022-10-26T05:40:33;100012.34;;;-0.15;72.19
50672;BME280;46021;55.882;37.654;2022-10-26T05:43:01;100016.09;;;0.02;73.13
50672;BME280;46021;55.882;37.654;2022-10-26T05:45:28;100006.84;;;0.15;71.90
50672;BME280;46021;55.882;37.654;2022-10-26T05:47:56;100005.28;;;0.23;71.80
50672;BME280;46021;55.882;37.654;2022-10-26T05:50:23;100003.75;;;0.34;73.18
50672;BME280;46021;55.882;37.654;2022-10-26T05:52:50;100006.19;;;0.25;72.30
50672;BME280;46021;55.882;37.654;2022-10-26T05:55:19;100002.84;;;0.31;72.23
50672;BME280;46021;55.882;37.654;2022-10-26T05:57:47;100004.66;;;0.38;72.17
50672;BME280;46021;55.882;37.654;2022-10-26T06:00:16;100005.53;;;0.42;72.51
50672;BME280;46021;55.882;37.654;2022-10-26T06:03:02;100011.59;;;0.45;71.10
50672;BME280;46021;55.882;37.654;2022-10-26T06:05:37;100009.09;;;0.50;70.47
50672;BME280;46021;55.882;37.654;2022-10-26T06:08:09;100000.56;;;0.51;71.60
50672;BME280;46021;55.882;37.654;2022-10-26T06:10:38;100009.13;;;0.51;70.30
50672;BME280;46021;55.882;37.654;2022-10-26T06:13:06;100018.66;;;0.62;70.47
50672;BME280;46021;55.882;37.654;2022-10-26T06:15:39;100003.34;;;0.68;70.51
50672;BME280;46021;55.882;37.654;2022-10-26T06:18:15;100004.34;;;0.76;70.79
50672;BME280;46021;55.882;37.654;2022-10-26T06:20:58;100002.66;;;0.80;70.17
50672;BME280;46021;55.882;37.654;2022-10-26T06:23:43;100006.13;;;0.85;70.99
50672;BME280;46021;55.882;37.654;2022-10-26T06:26:24;100002.88;;;0.98;71.47
50672;BME280;46021;55.882;37.654;2022-10-26T06:29:02;100003.06;;;1.13;70.35
50672;BME280;46021;55.882;37.654;2022-10-26T06:31:32;100013.41;;;1.20;69.79
50672;BME280;46021;55.882;37.654;2022-10-26T06:34:00;100010.09;;;1.27;69.68
50672;BME280;46021;55.882;37.654;2022-10-26T06:36:28;100010.25;;;1.42;69.75
50672;BME280;46021;55.882;37.654;2022-10-26T06:38:57;100002.56;;;1.47;69.82
50672;BME280;46021;55.882;37.654;2022-10-26T06:41:29;100004.38;;;1.59;69.16
50672;BME280;46021;55.882;37.654;2022-10-26T06:43:58;100010.50;;;1.70;69.79
50672;BME280;46021;55.882;37.654;2022-10-26T06:46:35;100006.34;;;1.83;68.35
50672;BME280;46021;55.882;37.654;2022-10-26T06:49:10;100005.56;;;1.91;68.13
50672;BME280;46021;55.882;37.654;2022-10-26T06:51:45;100004.63;;;1.83;67.42
50672;BME280;46021;55.882;37.654;2022-10-26T06:54:19;100003.81;;;1.87;68.42
50672;BME280;46021;55.882;37.654;2022-10-26T06:56:51;100006.59;;;2.15;67.81
50672;BME280;46021;55.882;37.654;2022-10-26T06:59:28;100007.50;;;2.20;67.31
50672;BME280;46021;55.882;37.654;2022-10-26T07:01:57;100005.06;;;2.43;67.18
50672;BME280;46021;55.882;37.654;2022-10-26T07:04:24;100004.19;;;2.37;66.54
50672;BME280;46021;55.882;37.654;2022-10-26T07:06:51;100007.75;;;2.60;66.47
50672;BME280;46021;55.882;37.654;2022-10-26T07:09:20;100004.41;;;2.70;66.45
50672;BME280;46021;55.882;37.654;2022-10-26T07:11:47;100009.63;;;2.92;66.21
50672;BME280;46021;55.882;37.654;2022-10-26T07:14:16;100003.72;;;3.16;65.35
50672;BME280;46021;55.882;37.654;2022-10-26T07:16:43;100008.06;;;3.32;65.15
50672;BME280;46021;55.882;37.654;2022-10-26T07:19:10;99997.81;;;3.46;65.01
50672;BME280;46021;55.882;37.654;2022-10-26T07:21:37;100001.25;;;3.64;64.37
50672;BME280;46021;55.882;37.654;2022-10-26T07:24:06;99996.09;;;3.76;63.89
50672;BME280;46021;55.882;37.654;2022-10-26T07:26:34;99998.72;;;3.90;64.63
50672;BME280;46021;55.882;37.654;2022-10-26T07:29:01;99990.13;;;3.94;63.33
50672;BME280;46021;55.882;37.654;2022-10-26T07:31:30;100000.44;;;4.03;62.50
50672;BME280;46021;55.882;37.654;2022-10-26T07:33:57;100002.16;;;3.90;62.43
50672;BME280;46021;55.882;37.654;2022-10-26T07:36:24;100004.75;;;3.94;62.37
50672;BME280;46021;55.882;37.654;2022-10-26T07:38:51;100004.72;;;3.90;61.18
50672;BME280;46021;55.882;37.654;2022-10-26T07:41:19;100004.72;;;3.97;62.57
50672;BME280;46021;55.882;37.654;2022-10-26T07:43:46;100007.28;;;3.80;61.75
50672;BME280;46021;55.882;37.654;2022-10-26T07:46:15;100004.72;;;3.81;62.00
50672;BME280;46021;55.882;37.654;2022-10-26T07:48:44;100003.88;;;3.88;62.57
50672;BME280;46021;55.882;37.654;2022-10-26T07:51:12;100002.16;;;3.86;61.83
50672;BME280;46021;55.882;37.654;2022-10-26T07:53:39;100008.19;;;4.06;61.11
50672;BME280;46021;55.882;37.654;2022-10-26T07:56:07;99991.81;;;3.98;60.33
50672;BME280;46021;55.882;37.654;2022-10-26T07:58:34;100005.59;;;4.06;59.70
50672;BME280;46021;55.882;37.654;2022-10-26T08:01:05;100006.44;;;4.13;60.98
50672;BME280;46021;55.882;37.654;2022-10-26T08:03:33;100002.16;;;4.17;59.74
50672;BME280;46021;55.882;37.654;2022-10-26T08:06:01;99998.69;;;4.22;60.48
50672;BME280;46021;55.882;37.654;2022-10-26T08:08:29;100006.44;;;4.32;59.77
50672;BME280;46021;55.882;37.654;2022-10-26T08:10:57;100012.44;;;4.41;60.09
50672;BME280;46021;55.882;37.654;2022-10-26T08:13:25;100007.28;;;4.43;59.94
50672;BME280;46021;55.882;37.654;2022-10-26T08:15:56;100006.41;;;4.44;59.31
50672;BME280;46021;55.882;37.654;2022-10-26T08:18:23;100002.09;;;4.47;59.36
50672;BME280;46021;55.882;37.654;2022-10-26T08:20:50;99998.66;;;4.48;59.32
50672;BME280;46021;55.882;37.654;2022-10-26T08:23:19;99996.03;;;4.62;58.91
50672;BME280;46021;55.882;37.654;2022-10-26T08:25:46;100008.09;;;4.57;57.78
50672;BME280;46021;55.882;37.654;2022-10-26T08:28:13;100000.41;;;4.48;58.25
50672;BME280;46021;55.882;37.654;2022-10-26T08:30:40;100008.13;;;4.53;57.90
50672;BME280;46021;55.882;37.654;2022-10-26T08:33:09;99985.72;;;4.53;58.53
50672;BME280;46021;55.882;37.654;2022-10-26T08:35:36;100003.78;;;4.62;58.00
50672;BME280;46021;55.882;37.654;2022-10-26T08:38:04;100002.97;;;4.54;58.44
50672;BME280;46021;55.882;37.654;2022-10-26T08:40:35;99996.06;;;4.67;57.97
50672;BME280;46021;55.882;37.654;2022-10-26T08:43:09;99996.03;;;4.65;58.14
50672;BME280;46021;55.882;37.654;2022-10-26T08:45:40;100002.00;;;4.83;57.18
50672;BME280;46021;55.882;37.654;2022-10-26T08:48:14;100001.97;;;4.87;57.66
50672;BME280;46021;55.882;37.654;2022-10-26T08:50:45;99998.53;;;4.99;57.85
50672;BME280;46021;55.882;37.654;2022-10-26T08:53:17;100012.25;;;5.09;56.96
50672;BME280;46021;55.882;37.654;2022-10-26T08:55:52;99982.09;;;5.10;56.97
50672;BME280;46021;55.882;37.654;2022-10-26T08:58:26;100002.00;;;4.81;57.14
50672;BME280;46021;55.882;37.654;2022-10-26T09:00:54;100005.44;;;4.88;57.95
50672;BME280;46021;55.882;37.654;2022-10-26T09:03:21;99999.44;;;4.83;56.55
50672;BME280;46021;55.882;37.654;2022-10-26T09:06:08;100009.72;;;4.91;56.62
50672;BME280;46021;55.882;37.654;2022-10-26T09:08:46;100008.84;;;4.98;57.24
50672;BME280;46021;55.882;37.654;2022-10-26T09:11:27;100006.25;;;5.08;57.30
50672;BME280;46021;55.882;37.654;2022-10-26T09:14:07;100001.94;;;5.03;57.14
50672;BME280;46021;55.882;37.654;2022-10-26T09:16:43;100002.84;;;4.94;57.15
50672;BME280;46021;55.882;37.654;2022-10-26T09:19:27;100002.81;;;5.00;56.02
50672;BME280;46021;55.882;37.654;2022-10-26T09:22:02;100007.06;;;5.17;57.10
50672;BME280;46021;55.882;37.654;2022-10-26T09:24:33;100002.66;;;5.34;57.26
50672;BME280;46021;55.882;37.654;2022-10-26T09:27:12;99999.97;;;5.48;56.72
50672;BME280;46021;55.882;37.654;2022-10-26T09:29:42;100005.88;;;5.70;56.69
50672;BME280;46021;55.882;37.654;2022-10-26T09:32:12;99998.00;;;5.87;56.00
50672;BME280;46021;55.882;37.654;2022-10-26T09:34:45;99993.66;;;5.91;55.89
50672;BME280;46021;55.882;37.654;2022-10-26T09:37:17;100001.44;;;5.88;55.38
50672;BME280;46021;55.882;37.654;2022-10-26T09:39:53;100001.59;;;5.69;54.87
50672;BME280;46021;55.882;37.654;2022-10-26T09:42:27;99999.78;;;5.80;55.49
50672;BME280;46021;55.882;37.654;2022-10-26T09:45:04;99998.00;;;5.84;55.20
50672;BME280;46021;55.882;37.654;2022-10-26T09:47:35;99995.31;;;6.01;54.82
50672;BME280;46021;55.882;37.654;2022-10-26T09:50:15;99993.34;;;6.31;53.96
50672;BME280;46021;55.882;37.654;2022-10-26T09:52:44;99994.13;;;6.40;54.03
50672;BME280;46021;55.882;37.654;2022-10-26T09:55:11;99996.69;;;6.42;53.97
50672;BME280;46021;55.882;37.654;2022-10-26T09:57:41;99995.00;;;6.38;53.63
50672;BME280;46021;55.882;37.654;2022-10-26T10:00:14;99998.38;;;6.46;53.98
50672;BME280;46021;55.882;37.654;2022-10-26T10:02:43;99992.19;;;6.61;53.91
50672;BME280;46021;55.882;37.654;2022-10-26T10:05:28;99998.19;;;6.64;52.91
50672;BME280;46021;55.882;37.654;2022-10-26T10:08:20;99982.97;;;6.34;52.35
50672;BME280;46021;55.882;37.654;2022-10-26T10:11:02;99986.56;;;6.20;52.36
50672;BME280;46021;55.882;37.654;2022-10-26T10:13:34;99998.84;;;5.88;53.34
50672;BME280;46021;55.882;37.654;2022-10-26T10:16:05;99993.78;;;5.72;53.76
50672;BME280;46021;55.882;37.654;2022-10-26T10:18:33;99995.53;;;5.73;54.45
50672;BME280;46021;55.882;37.654;2022-10-26T10:21:02;100004.94;;;5.82;54.55
50672;BME280;46021;55.882;37.654;2022-10-26T10:23:31;99996.25;;;5.91;54.67
50672;BME280;46021;55.882;37.654;2022-10-26T10:26:01;99988.41;;;6.03;54.19
50672;BME280;46021;55.882;37.654;2022-10-26T10:28:29;99986.50;;;6.27;54.04
50672;BME280;46021;55.882;37.654;2022-10-26T10:31:00;99977.94;;;6.18;53.16
50672;BME280;46021;55.882;37.654;2022-10-26T10:33:36;99985.81;;;6.04;53.81
50672;BME280;46021;55.882;37.654;2022-10-26T10:36:07;99985.72;;;6.17;53.99
50672;BME280;46021;55.882;37.654;2022-10-26T10:38:37;99986.47;;;6.30;54.32
50672;BME280;46021;55.882;37.654;2022-10-26T10:41:05;99978.88;;;6.08;53.77
50672;BME280;46021;55.882;37.654;2022-10-26T10:43:43;99980.72;;;5.95;53.85
50672;BME280;46021;55.882;37.654;2022-10-26T10:46:17;99982.53;;;5.78;53.79
50672;BME280;46021;55.882;37.654;2022-10-26T10:48:47;99991.31;;;5.61;54.23
50672;BME280;46021;55.882;37.654;2022-10-26T10:51:19;99976.75;;;5.46;53.75
50672;BME280;46021;55.882;37.654;2022-10-26T10:53:49;99980.22;;;5.36;53.99
50672;BME280;46021;55.882;37.654;2022-10-26T10:56:39;99985.34;;;5.45;54.53
50672;BME280;46021;55.882;37.654;2022-10-26T11:05:59;99992.88;;;5.82;53.86
50672;BME280;46021;55.882;37.654;2022-10-26T11:08:32;99995.47;;;5.76;54.11
50672;BME280;46021;55.882;37.654;2022-10-26T11:11:04;99994.63;;;5.73;54.25
50672;BME280;46021;55.882;37.654;2022-10-26T11:13:36;99992.09;;;5.68;54.45
50672;BME280;46021;55.882;37.654;2022-10-26T11:16:09;99999.03;;;5.64;54.03
50672;BME280;46021;55.882;37.654;2022-10-26T11:18:42;99988.66;;;5.69;54.12
50672;BME280;46021;55.882;37.654;2022-10-26T11:21:18;99985.25;;;5.61;54.12
50672;BME280;46021;55.882;37.654;2022-10-26T11:23:50;99992.09;;;5.71;54.62
50672;BME280;46021;55.882;37.654;2022-10-26T11:26:23;99989.72;;;5.34;54.62
50672;BME280;46021;55.882;37.654;2022-10-26T11:28:55;99986.25;;;5.44;54.21
50672;BME280;46021;55.882;37.654;2022-10-26T11:31:29;99986.19;;;5.52;55.09
50672;BME280;46021;55.882;37.654;2022-10-26T11:34:09;99971.59;;;5.40;54.50
50672;BME280;46021;55.882;37.654;2022-10-26T11:36:41;99984.59;;;5.28;55.22
50672;BME280;46021;55.882;37.654;2022-10-26T11:39:17;99980.28;;;5.30;54.64
50672;BME280;46021;55.882;37.654;2022-10-26T11:41:50;99982.84;;;5.32;54.89
50672;BME280;46021;55.882;37.654;2022-10-26T11:44:25;99981.06;;;5.38;55.31
50672;BME280;46021;55.882;37.654;2022-10-26T11:47:00;99981.13;;;5.31;54.67
50672;BME280;46021;55.882;37.654;2022-10-26T11:49:37;99966.50;;;5.28;55.01
50672;BME280;46021;55.882;37.654;2022-10-26T11:52:10;99988.88;;;5.35;55.06
50672;BME280;46021;55.882;37.654;2022-10-26T11:54:46;99975.91;;;5.37;55.54
50672;BME280;46021;55.882;37.654;2022-10-26T11:57:17;99975.91;;;5.43;55.28
50672;BME280;46021;55.882;37.654;2022-10-26T11:59:48;99969.94;;;5.33;54.70
50672;BME280;46021;55.882;37.654;2022-10-26T12:02:19;99970.00;;;5.18;54.86
50672;BME280;46021;55.882;37.654;2022-10-26T12:04:52;99968.34;;;5.09;54.69
50672;BME280;46021;55.882;37.654;2022-10-26T12:07:23;99964.91;;;5.02;55.97
50672;BME280;46021;55.882;37.654;2022-10-26T12:09:54;99970.09;;;4.95;55.24
50672;BME280;46021;55.882;37.654;2022-10-26T12:12:27;99971.00;;;4.94;55.10
50672;BME280;46021;55.882;37.654;2022-10-26T12:15:04;99952.09;;;4.76;55.51
50672;BME280;46021;55.882;37.654;2022-10-26T12:17:37;99950.38;;;4.71;56.33
50672;BME280;46021;55.882;37.654;2022-10-26T12:20:19;99966.75;;;4.73;55.48
50672;BME280;46021;55.882;37.654;2022-10-26T12:22:54;99965.91;;;4.66;56.73
50672;BME280;46021;55.882;37.654;2022-10-26T12:25:22;99970.19;;;4.68;56.48
50672;BME280;46021;55.882;37.654;2022-10-26T12:27:52;99971.09;;;4.69;55.71
50672;BME280;46021;55.882;37.654;2022-10-26T12:30:26;99960.78;;;4.54;56.95
50672;BME280;46021;55.882;37.654;2022-10-26T12:32:55;99967.66;;;4.55;56.64
50672;BME280;46021;55.882;37.654;2022-10-26T12:35:38;99959.91;;;4.53;57.00
50672;BME280;46021;55.882;37.654;2022-10-26T12:41:18;99953.06;;;4.40;57.63
50672;BME280;46021;55.882;37.654;2022-10-26T12:43:45;99955.66;;;4.41;56.41
50672;BME280;46021;55.882;37.654;2022-10-26T12:46:39;99960.84;;;4.37;57.84
50672;BME280;46021;55.882;37.654;2022-10-26T12:52:40;99960.00;;;4.16;58.05
50672;BME280;46021;55.882;37.654;2022-10-26T12:55:39;99965.16;;;4.04;58.17
50672;BME280;46021;55.882;37.654;2022-10-26T13:01:35;99959.16;;;4.03;58.27
50672;BME280;46021;55.882;37.654;2022-10-26T13:04:17;99959.16;;;3.94;58.44
50672;BME280;46021;55.882;37.654;2022-10-26T13:06:58;99954.00;;;3.93;58.34
50672;BME280;46021;55.882;37.654;2022-10-26T13:09:37;99947.97;;;3.81;58.00
50672;BME280;46021;55.882;37.654;2022-10-26T13:12:04;99953.16;;;3.78;58.40
50672;BME280;46021;55.882;37.654;2022-10-26T13:14:34;99954.00;;;3.76;59.23
50672;BME280;46021;55.882;37.654;2022-10-26T13:17:04;99960.00;;;3.70;58.43
50672;BME280;46021;55.882;37.654;2022-10-26T13:19:38;99961.75;;;3.65;58.95
50672;BME280;46021;55.882;37.654;2022-10-26T13:22:12;99957.44;;;3.50;60.31
50672;BME280;46021;55.882;37.654;2022-10-26T13:24:47;99952.25;;;3.45;60.07
50672;BME280;46021;55.882;37.654;2022-10-26T13:32:59;99959.13;;;3.37;60.62
50672;BME280;46021;55.882;37.654;2022-10-26T13:35:29;99961.69;;;3.31;59.54
50672;BME280;46021;55.882;37.654;2022-10-26T13:37:59;99956.53;;;3.31;59.65
50672;BME280;46021;55.882;37.654;2022-10-26T13:40:36;99954.78;;;3.27;59.83